• Join FlightAware (Why Join?)
  • Login
  • US Flag 
03:57PM EDT


 

Airport Tracker/Info


-or-


 

Live Flight TrackerFlight Track Log ✈ N84HA ✈ 25-Jun-2014 ✈ KGSO - KFTY

Flight Track Log - Related Links

Times and Time Zones

All times are in EDT time to prevent confusion due to time zone crossing. See the N84HA flight status page for this flight to view local times or setup timezone preferences in your user account.

Time Position Orientation Groundspeed Altitude Reporting Facility
EDT Latitude Longitude Course Direction KTS MPH feet Rate Location/Type
03:54PM 35.8361 -79.9830 186° South  Level FlightAware Approximate
03:55PM 35.7834 -79.9933 189° South  Level FlightAware Approximate
03:55PM 35.8397 -80.0017 238° Southwest 154 177 6,900  Level Atlanta Center
03:56PM 35.7318 -80.0091 202° Southwest  Level FlightAware Approximate
03:56PM 35.8019 -80.0011 179° South 148 170 7,700  Level Atlanta Center
03:57PM 35.6799 -80.0228 188° South  Level FlightAware Approximate
03:57PM 35.7667 -80.0053 185° South 140 161 8,600  Level Atlanta Center
03:58PM 35.6269 -80.0316 188° South  Level FlightAware Approximate
03:58PM 35.7339 -80.0247 206° Southwest 140 161 9,400  Level Atlanta Center
03:59PM 35.6040 -80.0840 253° West  Level FlightAware Approximate
03:59PM 35.7119 -80.0539 227° Southwest 127 146 10,300  Level Atlanta Center
04:00PM 35.5791 -80.1417 238° Southwest  Level FlightAware Approximate
04:00PM 35.6919 -80.0831 230° Southwest 127 146 11,100  Level Atlanta Center
04:01PM 35.6700 -80.1150 230° Southwest 121 139 11,900 720 Climbing Atlanta Center
04:02PM 35.6486 -80.1569 238° Southwest 135 155 12,600 720 Climbing Atlanta Center
04:03PM 35.6286 -80.1908 234° Southwest 135 155 13,400 780 Climbing Atlanta Center
04:04PM 35.6047 -80.2228 227° Southwest 135 155 14,200 720 Climbing Atlanta Center
04:05PM 35.5828 -80.2544 230° Southwest 135 155 14,900 600 Climbing Atlanta Center
04:06PM 35.5586 -80.2886 229° Southwest 135 155 15,500 600 Climbing Atlanta Center
04:07PM 35.5367 -80.3203 230° Southwest 135 155 16,200 600 Climbing Atlanta Center
04:08PM 35.5106 -80.3522 225° Southwest 135 155 16,800 600 Climbing Atlanta Center
04:09PM 35.4844 -80.3864 227° Southwest 135 155 17,400 540 Climbing Atlanta Center
04:10PM 35.4542 -80.4183 221° Southwest 140 161 17,900 300 Climbing Atlanta Center
04:11PM 35.4153 -80.4481 212° Southwest 159 183 18,000 60 Climbing Atlanta Center
04:12PM 35.3769 -80.4881 220° Southwest 179 206 18,100  Climbing Atlanta Center
04:13PM 35.3319 -80.5231 212° Southwest 190 219 18,100  Level Atlanta Center
04:14PM 35.2892 -80.5606 216° Southwest 190 219 18,100 -60 Level Atlanta Center
04:15PM 35.2444 -80.5956 213° Southwest 190 219 18,000 -60 Descending Atlanta Center
04:16PM 35.1972 -80.6281 209° Southwest 195 224 18,000  Level Atlanta Center
04:17PM 35.1522 -80.6628 212° Southwest 195 224 18,000  Level Atlanta Center
04:18PM 35.1072 -80.6950 210° Southwest 195 224 18,000  Level Atlanta Center
04:19PM 35.0625 -80.7325 214° Southwest 195 224 18,000  Level Atlanta Center
04:20PM 35.0153 -80.7672 211° Southwest 195 224 18,000  Level Atlanta Center
04:21PM 34.9747 -80.8044 217° Southwest 195 224 18,000  Level Atlanta Center
04:22PM 34.9403 -80.8486 226° Southwest 190 219 18,000  Level Atlanta Center
04:23PM 34.9061 -80.8956 228° Southwest 190 219 18,000  Level Atlanta Center
04:24PM 34.8761 -80.9450 234° Southwest 185 213 18,000  Level Atlanta Center
04:25PM 34.8417 -80.9892 226° Southwest 185 213 18,000  Level Atlanta Center
04:26PM 34.8075 -81.0461 234° Southwest 190 219 18,000  Level Atlanta Center
04:27PM 34.7775 -81.0928 232° Southwest 190 219 18,000  Level Atlanta Center
04:28PM 34.7808 -81.1533 274° West 183 211 18,000  Level Atlanta Center
04:29PM 34.8356 -81.1667 349° North 140 161 18,000  Level Atlanta Center
04:30PM 34.8903 -81.1850 345° North 161 185 18,000  Level Atlanta Center
04:31PM 34.9306 -81.2217 323° Northwest 180 207 18,000  Level Atlanta Center
04:32PM 34.9194 -81.2853 258° West 153 176 18,000  Level Atlanta Center
04:33PM 34.9167 -81.3486 267° West 170 196 18,000  Level Atlanta Center
04:34PM 34.9097 -81.4122 262° West 185 213 18,000  Level Atlanta Center
04:35PM 34.9050 -81.4756 265° West 191 220 18,000  Level Atlanta Center
04:36PM 34.8978 -81.5392 262° West 191 220 18,000  Level Atlanta Center
04:37PM 34.8908 -81.6028 262° West 196 226 18,000  Level Atlanta Center
04:38PM 34.8836 -81.6661 262° West 196 226 18,000  Level Atlanta Center
04:39PM 34.8767 -81.7322 263° West 196 226 18,000  Level Atlanta Center
04:40PM 34.8694 -81.7933 262° West 196 226 18,100  Climbing Atlanta Center
04:41PM 34.8642 -81.8592 264° West 196 226 18,000 -60 Descending Atlanta Center
04:42PM 34.8550 -81.9253 260° West 201 231 18,000  Level Atlanta Center
04:43PM 34.8478 -81.9861 262° West 201 231 18,000  Level Atlanta Center
04:44PM 34.8403 -82.0469 261° West 201 231 18,000  Level Atlanta Center
04:45PM 34.8350 -82.1106 264° West 201 231 18,000  Level Atlanta Center
04:46PM 34.8278 -82.1689 261° West 195 224 18,100  Climbing Atlanta Center
04:47PM 34.8203 -82.2347 262° West 200 230 18,000  Descending Atlanta Center
04:48PM 34.8150 -82.2981 264° West 200 230 18,100  Climbing Atlanta Center
04:49PM 34.8075 -82.3642 262° West 200 230 18,000 -60 Descending Atlanta Center
04:50PM 34.8000 -82.4300 262° West 200 230 18,000  Level Atlanta Center
04:51PM 34.7925 -82.4933 262° West 200 230 18,000  Level Atlanta Center
04:52PM 34.7831 -82.5592 260° West 200 230 18,000  Level Atlanta Center
04:53PM 34.7753 -82.6228 262° West 200 230 18,000 -420 Level Atlanta Center
04:54PM 34.7697 -82.6911 264° West 200 230 17,200 -780 Descending Atlanta Center
04:55PM 34.7603 -82.7669 261° West 213 245 16,500 -840 Descending Atlanta Center
04:56PM 34.7422 -82.8406 253° West 223 257 15,600 -840 Descending Atlanta Center
04:57PM 34.7117 -82.9142 243° Southwest 228 262 14,900 -840 Descending Atlanta Center
04:58PM 34.6914 -82.9853 251° West 228 262 14,000 -840 Descending Atlanta Center
04:59PM 34.6669 -83.0539 247° West 228 262 13,300 -840 Descending Atlanta Center
05:00PM 34.6444 -83.1222 248° West 223 257 12,400 -840 Descending Atlanta Center
05:01PM 34.6219 -83.1881 247° West 218 251 11,700 -600 Descending Atlanta Center
05:02PM 34.6078 -83.2539 255° West 212 244 11,200 -360 Descending Atlanta Center
05:03PM 34.5872 -83.3172 248° West 206 237 11,000 -120 Descending Atlanta Center
05:04PM 34.5689 -83.3728 248° West 195 224 11,000  Level Atlanta Center
05:05PM 34.5483 -83.4283 246° West 189 217 11,000  Level Atlanta Center
05:06PM 34.5236 -83.4842 242° Southwest 184 212 11,000  Level Atlanta Center
05:07PM 34.5050 -83.5447 250° West 190 219 11,000  Level Atlanta Center
05:08PM 34.4822 -83.5978 243° Southwest 190 219 11,000  Level Atlanta Center
05:09PM 34.4614 -83.6533 246° West 190 219 11,000 -120 Level Atlanta Center
05:10PM 34.4428 -83.7114 249° West 190 219 10,800 -360 Descending Atlanta Center
05:11PM 34.4222 -83.7744 248° West 195 224 10,300 -600 Descending Atlanta Center
05:12PM 34.4036 -83.8372 250° West 200 230 9,700 -780 Descending Atlanta Center
05:13PM 34.3828 -83.9028 249° West 206 237 8,800 -720 Descending Atlanta Center
05:14PM 34.3536 -83.9658 241° Southwest 211 243 8,300 -420 Descending Atlanta Center
05:15PM 34.3328 -84.0286 248° West 216 249 8,000 -180 Descending Atlanta Center
05:16PM 34.3097 -84.0842 243° Southwest 206 237 8,000  Level Atlanta Center
05:17PM 34.2597 -84.1042 198° South 185 213 8,000  Level Atlanta Center
05:18PM 34.2075 -84.1267 200° South 185 213 8,000 -420 Level Atlanta Center
05:19PM 34.1553 -84.1492 200° South 191 220 7,200 -780 Descending Atlanta Center
05:20PM 34.0969 -84.1717 198° South 211 243 6,500 -780 Descending Atlanta Center
05:22PM 34.0000 -84.2167 201° Southwest 211 243 5,200 -600 Descending Atlanta TRACON
05:23PM 33.9500 -84.2333 195° South 205 236 5,000 -120 Descending Atlanta TRACON
05:24PM 33.9000 -84.2500 195° South 175 201 5,000 -240 Level Atlanta TRACON
05:25PM 33.8667 -84.2667 203° Southwest 184 212 4,600 -660 Descending Atlanta TRACON
05:26PM 33.8167 -84.3000 209° Southwest 197 227 3,700 -600 Descending Atlanta TRACON
05:27PM 33.8167 -84.3667 270° West 171 197 3,400 -540 Descending Atlanta TRACON
05:28PM 33.8000 -84.4167 248° West 187 215 2,700 -960 Descending Atlanta TRACON
05:29PM 33.7833 -84.4667 248° West 153 176 1,600 -1,140 Descending Atlanta TRACON
05:31PM 33.7667 -84.5167 239° Southwest  Level FlightAware Approximate
05:38PM 33.7791 -84.5214 239° Southwest  Level Estimated